sensor_id;sensor_type;location;lat;lon;timestamp;temperature;humidity
6863;DHT22;3470;48.738;9.616;2022-08-25T00:00:47;17.50;99.90
6863;DHT22;3470;48.738;9.616;2022-08-25T00:03:13;17.50;99.90
6863;DHT22;3470;48.738;9.616;2022-08-25T00:05:39;17.40;99.90
6863;DHT22;3470;48.738;9.616;2022-08-25T00:08:05;17.40;99.90
6863;DHT22;3470;48.738;9.616;2022-08-25T00:10:36;17.50;99.90
6863;DHT22;3470;48.738;9.616;2022-08-25T00:13:02;17.50;99.90
6863;DHT22;3470;48.738;9.616;2022-08-25T00:15:29;17.50;99.90
6863;DHT22;3470;48.738;9.616;2022-08-25T00:17:57;17.40;99.90
6863;DHT22;3470;48.738;9.616;2022-08-25T00:20:23;17.40;99.90
6863;DHT22;3470;48.738;9.616;2022-08-25T00:22:50;17.30;99.90
6863;DHT22;3470;48.738;9.616;2022-08-25T00:25:17;17.30;99.90
6863;DHT22;3470;48.738;9.616;2022-08-25T00:27:42;17.20;99.90
6863;DHT22;3470;48.738;9.616;2022-08-25T00:30:09;17.20;99.90
6863;DHT22;3470;48.738;9.616;2022-08-25T00:32:35;17.20;99.90
6863;DHT22;3470;48.738;9.616;2022-08-25T00:35:01;17.10;99.90
6863;DHT22;3470;48.738;9.616;2022-08-25T00:37:28;17.10;99.90
6863;DHT22;3470;48.738;9.616;2022-08-25T00:39:53;17.10;99.90
6863;DHT22;3470;48.738;9.616;2022-08-25T00:42:21;17.10;99.90
6863;DHT22;3470;48.738;9.616;2022-08-25T00:44:47;17.20;99.90
6863;DHT22;3470;48.738;9.616;2022-08-25T00:47:13;17.10;99.90
6863;DHT22;3470;48.738;9.616;2022-08-25T00:49:42;17.10;99.90
6863;DHT22;3470;48.738;9.616;2022-08-25T00:52:27;17.10;99.90
6863;DHT22;3470;48.738;9.616;2022-08-25T00:54:59;17.10;99.90
6863;DHT22;3470;48.738;9.616;2022-08-25T00:57:33;17.00;99.90
6863;DHT22;3470;48.738;9.616;2022-08-25T01:00:00;17.10;99.90
6863;DHT22;3470;48.738;9.616;2022-08-25T01:02:26;17.00;99.90
6863;DHT22;3470;48.738;9.616;2022-08-25T01:04:51;16.90;99.90
6863;DHT22;3470;48.738;9.616;2022-08-25T01:07:19;16.90;99.90
6863;DHT22;3470;48.738;9.616;2022-08-25T01:09:47;16.90;99.90
6863;DHT22;3470;48.738;9.616;2022-08-25T01:12:15;16.80;99.90
6863;DHT22;3470;48.738;9.616;2022-08-25T01:14:42;16.80;99.90
6863;DHT22;3470;48.738;9.616;2022-08-25T01:17:11;16.80;99.90
6863;DHT22;3470;48.738;9.616;2022-08-25T01:19:36;16.80;99.90
6863;DHT22;3470;48.738;9.616;2022-08-25T01:22:03;16.70;99.90
6863;DHT22;3470;48.738;9.616;2022-08-25T01:24:43;16.70;99.90
6863;DHT22;3470;48.738;9.616;2022-08-25T01:27:11;16.70;99.90
6863;DHT22;3470;48.738;9.616;2022-08-25T01:29:37;16.70;99.90
6863;DHT22;3470;48.738;9.616;2022-08-25T01:32:10;16.60;99.90
6863;DHT22;3470;48.738;9.616;2022-08-25T01:34:39;16.60;99.90
6863;DHT22;3470;48.738;9.616;2022-08-25T01:37:06;16.60;99.90
6863;DHT22;3470;48.738;9.616;2022-08-25T01:39:32;16.60;99.90
6863;DHT22;3470;48.738;9.616;2022-08-25T01:44:27;16.60;99.90
6863;DHT22;3470;48.738;9.616;2022-08-25T01:46:53;16.60;99.90
6863;DHT22;3470;48.738;9.616;2022-08-25T01:49:19;16.60;99.90
6863;DHT22;3470;48.738;9.616;2022-08-25T01:51:52;16.50;99.90
6863;DHT22;3470;48.738;9.616;2022-08-25T01:54:20;16.50;99.90
6863;DHT22;3470;48.738;9.616;2022-08-25T01:56:46;16.40;99.90
6863;DHT22;3470;48.738;9.616;2022-08-25T01:59:15;16.40;99.90
6863;DHT22;3470;48.738;9.616;2022-08-25T02:01:41;16.40;99.90
6863;DHT22;3470;48.738;9.616;2022-08-25T02:04:07;16.40;99.90
6863;DHT22;3470;48.738;9.616;2022-08-25T02:06:33;16.40;99.90
6863;DHT22;3470;48.738;9.616;2022-08-25T02:09:03;16.30;99.90
6863;DHT22;3470;48.738;9.616;2022-08-25T02:11:31;16.30;99.90
6863;DHT22;3470;48.738;9.616;2022-08-25T02:13:57;16.30;99.90
6863;DHT22;3470;48.738;9.616;2022-08-25T02:16:27;16.30;99.90
6863;DHT22;3470;48.738;9.616;2022-08-25T02:18:54;16.30;99.90
6863;DHT22;3470;48.738;9.616;2022-08-25T02:21:20;16.30;99.90
6863;DHT22;3470;48.738;9.616;2022-08-25T02:23:46;16.30;99.90
6863;DHT22;3470;48.738;9.616;2022-08-25T02:26:12;16.20;99.90
6863;DHT22;3470;48.738;9.616;2022-08-25T02:28:42;16.20;99.90
6863;DHT22;3470;48.738;9.616;2022-08-25T02:31:08;16.20;99.90
6863;DHT22;3470;48.738;9.616;2022-08-25T02:33:34;16.20;99.90
6863;DHT22;3470;48.738;9.616;2022-08-25T02:36:00;16.20;99.90
6863;DHT22;3470;48.738;9.616;2022-08-25T02:38:27;16.20;99.90
6863;DHT22;3470;48.738;9.616;2022-08-25T02:40:55;16.20;99.90
6863;DHT22;3470;48.738;9.616;2022-08-25T02:43:20;16.10;99.90
6863;DHT22;3470;48.738;9.616;2022-08-25T02:45:46;16.10;99.90
6863;DHT22;3470;48.738;9.616;2022-08-25T02:48:12;16.00;99.90
6863;DHT22;3470;48.738;9.616;2022-08-25T02:50:38;16.00;99.90
6863;DHT22;3470;48.738;9.616;2022-08-25T02:53:04;16.10;99.90
6863;DHT22;3470;48.738;9.616;2022-08-25T02:55:30;16.10;99.90
6863;DHT22;3470;48.738;9.616;2022-08-25T02:57:55;16.10;99.90
6863;DHT22;3470;48.738;9.616;2022-08-25T03:00:21;16.10;99.90
6863;DHT22;3470;48.738;9.616;2022-08-25T03:02:46;16.10;99.90
6863;DHT22;3470;48.738;9.616;2022-08-25T03:05:13;16.10;99.90
6863;DHT22;3470;48.738;9.616;2022-08-25T03:07:39;16.10;99.90
6863;DHT22;3470;48.738;9.616;2022-08-25T03:10:09;16.10;99.90
6863;DHT22;3470;48.738;9.616;2022-08-25T03:12:35;16.20;99.90
6863;DHT22;3470;48.738;9.616;2022-08-25T03:15:00;16.10;99.90
6863;DHT22;3470;48.738;9.616;2022-08-25T03:17:26;16.10;99.90
6863;DHT22;3470;48.738;9.616;2022-08-25T03:19:52;16.10;99.90
6863;DHT22;3470;48.738;9.616;2022-08-25T03:22:17;16.00;99.90
6863;DHT22;3470;48.738;9.616;2022-08-25T03:24:43;16.00;99.90
6863;DHT22;3470;48.738;9.616;2022-08-25T03:27:09;16.00;99.90
6863;DHT22;3470;48.738;9.616;2022-08-25T03:29:34;16.00;99.90
6863;DHT22;3470;48.738;9.616;2022-08-25T03:32:00;16.00;99.90
6863;DHT22;3470;48.738;9.616;2022-08-25T03:34:29;15.90;99.90
6863;DHT22;3470;48.738;9.616;2022-08-25T03:36:55;15.90;99.90
6863;DHT22;3470;48.738;9.616;2022-08-25T03:39:23;15.90;99.90
6863;DHT22;3470;48.738;9.616;2022-08-25T03:41:50;15.80;99.90
6863;DHT22;3470;48.738;9.616;2022-08-25T03:44:18;15.80;99.90
6863;DHT22;3470;48.738;9.616;2022-08-25T03:46:46;15.80;99.90
6863;DHT22;3470;48.738;9.616;2022-08-25T03:49:16;15.80;99.90
6863;DHT22;3470;48.738;9.616;2022-08-25T03:51:45;15.90;99.90
6863;DHT22;3470;48.738;9.616;2022-08-25T03:54:13;15.80;99.90
6863;DHT22;3470;48.738;9.616;2022-08-25T03:56:40;15.90;99.90
6863;DHT22;3470;48.738;9.616;2022-08-25T03:59:05;15.90;99.90
6863;DHT22;3470;48.738;9.616;2022-08-25T04:01:34;15.80;99.90
6863;DHT22;3470;48.738;9.616;2022-08-25T04:04:01;15.80;99.90
6863;DHT22;3470;48.738;9.616;2022-08-25T04:06:27;15.80;99.90
6863;DHT22;3470;48.738;9.616;2022-08-25T04:08:52;15.80;99.90
6863;DHT22;3470;48.738;9.616;2022-08-25T04:11:21;15.70;99.90
6863;DHT22;3470;48.738;9.616;2022-08-25T04:13:47;15.70;99.90
6863;DHT22;3470;48.738;9.616;2022-08-25T04:16:16;15.60;99.90
6863;DHT22;3470;48.738;9.616;2022-08-25T04:18:43;15.60;99.90
6863;DHT22;3470;48.738;9.616;2022-08-25T04:21:09;15.60;99.90
6863;DHT22;3470;48.738;9.616;2022-08-25T04:23:37;15.50;99.90
6863;DHT22;3470;48.738;9.616;2022-08-25T04:26:13;15.50;99.90
6863;DHT22;3470;48.738;9.616;2022-08-25T04:28:39;15.40;99.90
6863;DHT22;3470;48.738;9.616;2022-08-25T04:31:06;15.40;99.90
6863;DHT22;3470;48.738;9.616;2022-08-25T04:33:33;15.40;99.90
6863;DHT22;3470;48.738;9.616;2022-08-25T04:35:58;15.40;99.90
6863;DHT22;3470;48.738;9.616;2022-08-25T04:38:24;15.40;99.90
6863;DHT22;3470;48.738;9.616;2022-08-25T04:40:56;15.50;99.90
6863;DHT22;3470;48.738;9.616;2022-08-25T04:43:21;15.50;99.90
6863;DHT22;3470;48.738;9.616;2022-08-25T04:45:47;15.60;99.90
6863;DHT22;3470;48.738;9.616;2022-08-25T04:48:12;15.60;99.90
6863;DHT22;3470;48.738;9.616;2022-08-25T04:50:38;15.70;99.90
6863;DHT22;3470;48.738;9.616;2022-08-25T04:53:04;15.80;99.90
6863;DHT22;3470;48.738;9.616;2022-08-25T04:55:30;15.80;99.90
6863;DHT22;3470;48.738;9.616;2022-08-25T04:57:55;15.80;99.90
6863;DHT22;3470;48.738;9.616;2022-08-25T05:00:21;15.80;99.90
6863;DHT22;3470;48.738;9.616;2022-08-25T05:02:47;15.90;99.90
6863;DHT22;3470;48.738;9.616;2022-08-25T05:05:13;16.00;99.90
6863;DHT22;3470;48.738;9.616;2022-08-25T05:07:39;16.10;99.90
6863;DHT22;3470;48.738;9.616;2022-08-25T05:10:05;16.20;99.90
6863;DHT22;3470;48.738;9.616;2022-08-25T05:12:31;16.20;99.90
6863;DHT22;3470;48.738;9.616;2022-08-25T05:14:57;16.30;99.90
6863;DHT22;3470;48.738;9.616;2022-08-25T05:17:43;16.40;99.90
6863;DHT22;3470;48.738;9.616;2022-08-25T05:20:08;16.50;99.90
6863;DHT22;3470;48.738;9.616;2022-08-25T05:22:34;16.60;99.90
6863;DHT22;3470;48.738;9.616;2022-08-25T05:25:00;16.60;99.90
6863;DHT22;3470;48.738;9.616;2022-08-25T05:27:25;16.70;99.90
6863;DHT22;3470;48.738;9.616;2022-08-25T05:29:51;16.70;99.90
6863;DHT22;3470;48.738;9.616;2022-08-25T05:32:17;16.80;99.90
6863;DHT22;3470;48.738;9.616;2022-08-25T05:34:42;16.90;99.90
6863;DHT22;3470;48.738;9.616;2022-08-25T05:37:08;16.90;99.90
6863;DHT22;3470;48.738;9.616;2022-08-25T05:39:33;17.00;99.90
6863;DHT22;3470;48.738;9.616;2022-08-25T05:41:59;17.10;99.90
6863;DHT22;3470;48.738;9.616;2022-08-25T05:44:25;17.20;99.90
6863;DHT22;3470;48.738;9.616;2022-08-25T05:46:51;17.30;99.90
6863;DHT22;3470;48.738;9.616;2022-08-25T05:49:17;17.40;99.90
6863;DHT22;3470;48.738;9.616;2022-08-25T05:51:43;17.50;99.90
6863;DHT22;3470;48.738;9.616;2022-08-25T05:54:08;17.60;99.90
6863;DHT22;3470;48.738;9.616;2022-08-25T05:56:34;17.70;99.90
6863;DHT22;3470;48.738;9.616;2022-08-25T05:59:00;17.80;99.90
6863;DHT22;3470;48.738;9.616;2022-08-25T06:01:27;17.90;99.90
6863;DHT22;3470;48.738;9.616;2022-08-25T06:04:12;18.00;99.90
6863;DHT22;3470;48.738;9.616;2022-08-25T06:06:39;18.30;99.90
6863;DHT22;3470;48.738;9.616;2022-08-25T06:09:06;18.40;99.90
6863;DHT22;3470;48.738;9.616;2022-08-25T06:11:33;18.60;99.90
6863;DHT22;3470;48.738;9.616;2022-08-25T06:13:58;18.80;99.90
6863;DHT22;3470;48.738;9.616;2022-08-25T06:16:24;19.00;99.90
6863;DHT22;3470;48.738;9.616;2022-08-25T06:18:50;19.30;99.90
6863;DHT22;3470;48.738;9.616;2022-08-25T06:21:15;19.70;99.90
6863;DHT22;3470;48.738;9.616;2022-08-25T06:23:42;20.10;99.90
6863;DHT22;3470;48.738;9.616;2022-08-25T06:26:12;20.60;99.90
6863;DHT22;3470;48.738;9.616;2022-08-25T06:28:38;21.00;99.90
6863;DHT22;3470;48.738;9.616;2022-08-25T06:31:04;21.30;99.90
6863;DHT22;3470;48.738;9.616;2022-08-25T06:33:30;21.60;99.90
6863;DHT22;3470;48.738;9.616;2022-08-25T06:35:56;22.10;99.60
6863;DHT22;3470;48.738;9.616;2022-08-25T06:38:23;22.50;98.10
6863;DHT22;3470;48.738;9.616;2022-08-25T06:40:48;23.00;97.30
6863;DHT22;3470;48.738;9.616;2022-08-25T06:43:17;23.50;96.30
6863;DHT22;3470;48.738;9.616;2022-08-25T06:45:43;24.00;95.60
6863;DHT22;3470;48.738;9.616;2022-08-25T06:48:09;24.50;94.00
6863;DHT22;3470;48.738;9.616;2022-08-25T06:50:37;24.80;93.20
6863;DHT22;3470;48.738;9.616;2022-08-25T06:53:04;25.10;92.40
6863;DHT22;3470;48.738;9.616;2022-08-25T06:55:29;25.20;92.10
6863;DHT22;3470;48.738;9.616;2022-08-25T06:57:55;25.50;91.60
6863;DHT22;3470;48.738;9.616;2022-08-25T07:00:21;25.50;91.10
6863;DHT22;3470;48.738;9.616;2022-08-25T07:02:47;25.80;90.80
6863;DHT22;3470;48.738;9.616;2022-08-25T07:05:13;26.10;90.40
6863;DHT22;3470;48.738;9.616;2022-08-25T07:07:38;26.30;89.40
6863;DHT22;3470;48.738;9.616;2022-08-25T07:10:05;26.50;88.80
6863;DHT22;3470;48.738;9.616;2022-08-25T07:12:31;26.60;89.60
6863;DHT22;3470;48.738;9.616;2022-08-25T07:14:56;26.70;88.20
6863;DHT22;3470;48.738;9.616;2022-08-25T07:17:22;26.80;86.60
6863;DHT22;3470;48.738;9.616;2022-08-25T07:19:48;27.20;86.70
6863;DHT22;3470;48.738;9.616;2022-08-25T07:22:14;27.60;86.00
6863;DHT22;3470;48.738;9.616;2022-08-25T07:24:40;27.80;83.80
6863;DHT22;3470;48.738;9.616;2022-08-25T07:27:06;27.70;83.60
